Main page
METAR-TAF:

METAR-TAF

Airports :

Bologna Guglielmo Marconi Airport

Bologna, Italy

latitude: 44-32N, longitude: 011-18E, elevation: 36 m

Current weather observation

The report was made 24 minutes ago, at 13:50 UTC
Wind 6 kt from the East, varying between Northeast and East/Southeast
Temperature 34°C
Humidity 36%
Pressure 1013 hPa
Visibility 10 km or more
Few clouds at a height of 4500 ft

METAR: LIPE 171350Z 09006KT 040V110 9999 FEW045 34/17 Q1013

Time: 16:14 (14:14 UTC)

Forecast

The report was made 3 hours and 14 minutes ago, at 11:00 UTC
Forecast valid from 17 at 12 UTC to 18 at 12 UTC
Wind 5 kt from variable directions
Visibility 10 km or more
no clouds below 1500 m and no cumulonimbus
Becoming
from 17 at 14 UTC to 17 at 16 UTC
Wind 10 kt from the East
Becoming
from 17 at 19 UTC to 17 at 21 UTC
Wind 5 kt from variable directions

TAF: LIPE 171100Z 1712/1812 VRB05KT CAVOK BECMG 1714/1716 09010KT BECMG 1719/1721 VRB05KT

Weather observations and forecasts of more than 4000 airports (METAR and TAF reports).

The available stations are represented by yellow and red dots on the map.

Hover mouse over dot to see the name of the station.

Then click to see weather observations and forecasts.

To change the map : click on the green buttons with a black cross to zoom in, on the green button with a dash to zoom out, or on the green arrows for adjacent maps.


METAR-TAF: